map of TFN home
TFN - Airport
Location
City:  Santa Cruz de Tenerife, Tenerife Island, Canary Islands, Spain
Name:Tenerife Norte
Old (Alt.):Tenerife North, Los Rodeos
ICAO:GCXO
IATA:TFN

Details
Type:Airport (Aerodrome, Airfield)
Use:Public/Civil
Latitude:2828'58"N (28.482653)
Longitude:1620'30"W (-16.341535)
Datum:WGS 1984
Elevation:2073 ft (632 m)
Variation:4.74W (WMM2015v2 magnetic declination)
0.15 annual change
Runways:1
Longest:11155 × 148 ft (3400 × 45 m), paved

Time
Time Zone:UTC+0 (DST+1)
Local Time:

Weather
METAR:GCXO 041400Z 10012KT 8000 VCFG SCT006 BKN011 14/12 Q1022 NOSIG
TAF:GCXO 040800Z 0409/0509 14010KT 9999 FEW010 TX18/0414Z TN11/0506Z PROB40
TEMPO 0409/0411 BKN010 PROB30
TEMPO 0409/0411 4900 BCFG BKN010 PROB30
TEMPO 0418/0509 4900 HZ

Related Locations
Nearby:
Farthest:NLK: 12183 mi / 19607 km
Norfolk Island, NF

Find:

   beyond  
but within

Other Information
Maps:
NOTAMs:
Links:
Sources:

  
  • flag of Spain
  • flag of Canary Islands
  • flag of Tenerife Island
  

Sectional Chart

Flight Planning
at skyvector.com

Satellite Image

Google Maps Satellite view

 

Copyright © 2004-2019 Karl L. Swartz. All rights reserved.
The Great Circle Mapper name and logo are trademarks of the Great Circle Mapper.
All other trademarks mentioned herein belong to their respective owners.
Please see credits for attibutions and further copyright information.

  Follow gcmap on Facebook Follow gcmap on Twitter GCmap on LinkedIn

hCard Microformat

Geo Microformat